Time;durP1;ratioP1;P1;durP2;ratioP2;P2;SDS_P1;SDS_P2;PMS_P1;PMS_P2;Temp;Humidity;BMP_temperature;BMP_pressure;BME280_temperature;BME280_humidity;BME280_pressure;Samples;Min_cycle;Max_cycle;Signal;HPM_P1;HPM_P2
2022/01/17 00:00:33;;;;;;;45.67;18.80;;;4.90;99.90;;;;;;4947775;28;20134;-87
2022/01/17 00:03:01;;;;;;;78.78;32.80;;;4.90;99.90;;;;;;4928461;28;20580;-88
2022/01/17 00:05:27;;;;;;;72.20;29.48;;;4.90;99.90;;;;;;4955531;28;20043;-88
2022/01/17 00:07:53;;;;;;;78.88;30.77;;;4.90;99.90;;;;;;4924621;28;20034;-88
2022/01/17 00:10:18;;;;;;;61.47;25.50;;;4.90;99.90;;;;;;4944737;28;20031;-88
2022/01/17 00:12:45;;;;;;;60.47;21.20;;;4.90;99.90;;;;;;4941203;28;20075;-88
2022/01/17 00:15:21;;;;;;;34.78;15.23;;;4.90;99.90;;;;;;4927334;28;20620;-88
2022/01/17 00:17:50;;;;;;;76.27;31.97;;;5.00;99.90;;;;;;4927879;28;20031;-88
2022/01/17 00:20:25;;;;;;;61.65;24.25;;;5.00;99.90;;;;;;4937285;28;20297;-88
2022/01/17 00:22:52;;;;;;;44.25;20.88;;;5.00;99.90;;;;;;4933979;28;20027;-88
2022/01/17 00:25:17;;;;;;;67.53;28.00;;;5.00;99.90;;;;;;4946885;28;20035;-88
2022/01/17 00:27:43;;;;;;;77.43;34.95;;;4.90;99.90;;;;;;4931945;28;20058;-88
2022/01/17 00:30:09;;;;;;;66.15;26.58;;;5.00;99.90;;;;;;4930485;28;20515;-88
2022/01/17 00:32:35;;;;;;;64.72;29.63;;;5.00;99.90;;;;;;4931743;28;20411;-88
2022/01/17 00:35:01;;;;;;;65.03;27.40;;;5.10;99.90;;;;;;4935901;28;20500;-88
2022/01/17 00:37:26;;;;;;;62.35;28.05;;;4.90;99.90;;;;;;4935382;28;20051;-88
2022/01/17 00:39:52;;;;;;;51.10;21.55;;;5.00;99.90;;;;;;4930281;28;20031;-88
2022/01/17 00:42:17;;;;;;;61.92;24.05;;;5.00;99.90;;;;;;4929378;28;20031;-88
2022/01/17 00:44:43;;;;;;;52.78;22.40;;;5.00;99.90;;;;;;4933204;28;20153;-88
2022/01/17 00:47:08;;;;;;;56.35;25.38;;;5.00;99.90;;;;;;4932675;28;20027;-88
2022/01/17 00:49:34;;;;;;;53.40;23.48;;;5.00;99.90;;;;;;4927184;28;20044;-88
2022/01/17 00:52:00;;;;;;;43.83;20.58;;;5.00;99.90;;;;;;4932971;28;20039;-88
2022/01/17 00:54:25;;;;;;;53.72;27.25;;;5.00;99.90;;;;;;4929196;28;20039;-88
2022/01/17 00:56:51;;;;;;;61.25;25.67;;;5.00;99.90;;;;;;4930067;28;20027;-88
2022/01/17 00:59:16;;;;;;;65.22;27.23;;;5.00;99.90;;;;;;4932726;28;20031;-88
2022/01/17 01:01:42;;;;;;;63.58;23.50;;;5.00;99.90;;;;;;4931950;28;20038;-88
2022/01/17 01:04:07;;;;;;;55.05;24.63;;;5.00;99.90;;;;;;4915552;28;20401;-88
2022/01/17 01:06:36;;;;;;;58.55;24.52;;;5.00;99.90;;;;;;4928917;28;20023;-88
2022/01/17 01:09:02;;;;;;;57.00;25.55;;;5.00;99.90;;;;;;4928601;28;20035;-87
2022/01/17 01:11:27;;;;;;;40.28;17.45;;;5.00;99.90;;;;;;4929841;28;20033;-87
2022/01/17 01:13:53;;;;;;;56.80;22.55;;;5.00;99.90;;;;;;4916835;28;20043;-88
2022/01/17 01:19:19;;;;;;;62.28;25.20;;;5.00;99.90;;;;;;4944247;28;20038;-88
2022/01/17 01:21:59;;;;;;;52.33;21.83;;;5.00;99.90;;;;;;4959571;28;20042;-88
2022/01/17 01:27:41;;;;;;;57.95;27.38;;;5.00;99.90;;;;;;4944476;28;20089;-88
2022/01/17 01:29:58;;;;;;;67.20;25.15;;;4.90;99.90;;;;;;4938364;28;20101;-88
2022/01/17 01:32:30;;;;;;;44.95;19.60;;;5.00;99.90;;;;;;4928804;28;20494;-88
2022/01/17 01:34:59;;;;;;;40.70;15.52;;;5.00;99.90;;;;;;4933974;28;20458;-88
2022/01/17 01:37:24;;;;;;;60.58;25.10;;;5.00;99.90;;;;;;4929731;28;20539;-87
2022/01/17 01:39:52;;;;;;;48.85;19.70;;;5.00;99.90;;;;;;4940496;28;20047;-88
2022/01/17 01:42:19;;;;;;;65.65;26.65;;;5.00;99.90;;;;;;4930612;28;20027;-87
2022/01/17 01:44:45;;;;;;;70.63;29.48;;;5.00;99.90;;;;;;4929076;28;20045;-88
2022/01/17 01:47:11;;;;;;;58.72;24.65;;;4.90;99.90;;;;;;4940799;28;20444;-87
2022/01/17 01:49:36;;;;;;;76.55;33.15;;;5.00;99.90;;;;;;4946155;28;20050;-87
2022/01/17 01:52:02;;;;;;;52.30;21.25;;;5.00;99.90;;;;;;4929875;28;20038;-88
2022/01/17 01:54:28;;;;;;;61.83;28.90;;;5.00;99.90;;;;;;4940869;28;20043;-88
2022/01/17 01:56:53;;;;;;;73.95;31.15;;;5.00;99.90;;;;;;4925165;28;20027;-88
2022/01/17 01:59:21;;;;;;;64.07;28.08;;;5.00;99.90;;;;;;4943937;28;20027;-88
2022/01/17 02:01:50;;;;;;;59.35;25.58;;;5.00;99.90;;;;;;4930879;28;20504;-88
2022/01/17 02:04:16;;;;;;;60.83;24.23;;;5.00;99.90;;;;;;4928638;28;20032;-87
2022/01/17 02:06:42;;;;;;;39.97;16.83;;;5.10;99.90;;;;;;4914673;28;20030;-88
2022/01/17 02:09:07;;;;;;;53.55;21.65;;;5.00;99.90;;;;;;4930001;28;20146;-87
2022/01/17 02:11:33;;;;;;;67.10;28.23;;;5.10;99.90;;;;;;4931295;28;20868;-88
2022/01/17 02:13:59;;;;;;;58.97;25.00;;;5.00;99.90;;;;;;4928750;28;20039;-87
2022/01/17 02:16:24;;;;;;;84.65;34.13;;;5.10;99.90;;;;;;4942511;28;20050;-87
2022/01/17 02:18:50;;;;;;;86.80;37.60;;;5.00;99.90;;;;;;4945295;28;20038;-87
2022/01/17 02:23:42;;;;;;;81.00;28.70;;;5.10;99.90;;;;;;4937817;28;20031;-87
2022/01/17 02:26:08;;;;;;;92.15;30.55;;;5.10;99.90;;;;;;4943360;28;20047;-87
2022/01/17 02:28:35;;;;;;;80.65;31.20;;;5.10;99.90;;;;;;4931070;28;20045;-87
2022/01/17 02:31:01;;;;;;;101.38;38.50;;;5.10;99.90;;;;;;4925902;28;20696;-86
2022/01/17 02:33:27;;;;;;;44.78;18.13;;;5.10;99.90;;;;;;4944165;28;20039;-87
2022/01/17 02:35:53;;;;;;;83.43;33.70;;;5.00;99.90;;;;;;4930364;28;20118;-88
2022/01/17 02:38:18;;;;;;;86.60;29.30;;;5.10;99.90;;;;;;4943418;28;20122;-88
2022/01/17 02:40:44;;;;;;;74.35;25.58;;;5.10;99.90;;;;;;4930894;28;20030;-88
2022/01/17 02:43:09;;;;;;;92.57;36.25;;;5.10;99.90;;;;;;4931268;28;20032;-88
2022/01/17 02:48:05;;;;;;;47.38;18.25;;;5.10;99.90;;;;;;4942180;28;20450;-87
2022/01/17 02:50:31;;;;;;;94.63;33.78;;;5.10;99.90;;;;;;4942165;28;20039;-87
2022/01/17 02:52:58;;;;;;;80.40;30.95;;;5.10;99.90;;;;;;4941253;28;20111;-87
2022/01/17 02:55:24;;;;;;;84.50;30.05;;;5.10;99.90;;;;;;4943009;28;20463;-88
2022/01/17 02:57:49;;;;;;;80.82;31.73;;;5.10;99.90;;;;;;4926493;28;20157;-87
2022/01/17 03:00:15;;;;;;;58.03;21.88;;;5.10;99.90;;;;;;4925839;28;20027;-88
2022/01/17 03:02:42;;;;;;;58.20;23.13;;;5.10;99.90;;;;;;4930640;28;20035;-87
2022/01/17 03:05:09;;;;;;;87.00;35.33;;;5.10;99.90;;;;;;4932962;28;20035;-87
2022/01/17 03:07:34;;;;;;;62.25;27.30;;;5.10;99.90;;;;;;4918324;28;20041;-88
2022/01/17 03:10:03;;;;;;;77.45;34.03;;;5.10;99.90;;;;;;4925443;28;20499;-88
2022/01/17 03:12:30;;;;;;;76.05;30.92;;;5.10;99.90;;;;;;4928892;28;20039;-87
2022/01/17 03:14:57;;;;;;;63.97;23.48;;;5.10;99.90;;;;;;4929436;28;20039;-87
2022/01/17 03:17:22;;;;;;;74.43;29.67;;;5.10;99.90;;;;;;4943502;28;20054;-87
2022/01/17 03:19:48;;;;;;;81.30;33.15;;;5.10;99.90;;;;;;4930746;28;20490;-87
2022/01/17 03:22:13;;;;;;;74.93;29.58;;;5.10;99.90;;;;;;4928593;28;20027;-87
2022/01/17 03:24:39;;;;;;;92.20;33.88;;;5.10;99.90;;;;;;4930008;28;20062;-87
2022/01/17 03:27:04;;;;;;;68.10;28.88;;;5.10;99.90;;;;;;4926335;28;20038;-87
2022/01/17 03:29:30;;;;;;;64.93;26.48;;;5.10;99.90;;;;;;4929429;28;20028;-87
2022/01/17 03:31:56;;;;;;;84.38;35.72;;;5.10;99.90;;;;;;4924909;28;20028;-87
2022/01/17 03:34:21;;;;;;;63.15;25.98;;;5.10;99.90;;;;;;4929156;28;20034;-87
2022/01/17 03:36:47;;;;;;;85.72;35.03;;;5.10;99.90;;;;;;4928302;28;20026;-87
2022/01/17 03:39:12;;;;;;;77.43;31.80;;;5.10;99.90;;;;;;4941607;28;20042;-86
2022/01/17 03:41:38;;;;;;;57.17;23.90;;;5.10;99.90;;;;;;4929731;28;20503;-87
2022/01/17 03:44:03;;;;;;;69.63;24.48;;;5.10;99.90;;;;;;4928181;28;20023;-87
2022/01/17 03:46:29;;;;;;;76.22;30.73;;;5.20;99.90;;;;;;4913565;28;20527;-87
2022/01/17 03:48:55;;;;;;;37.70;15.25;;;5.20;99.90;;;;;;4940560;28;20129;-87
2022/01/17 03:51:20;;;;;;;68.70;28.15;;;5.10;99.90;;;;;;4930848;28;20114;-87
2022/01/17 03:53:46;;;;;;;51.13;21.13;;;5.20;99.90;;;;;;4933047;28;20078;-87
2022/01/17 03:56:11;;;;;;;43.58;15.90;;;5.10;99.90;;;;;;4928728;28;20035;-87
2022/01/17 03:58:37;;;;;;;78.05;32.88;;;5.10;99.90;;;;;;4930906;28;20126;-87
2022/01/17 04:01:03;;;;;;;75.55;28.02;;;5.10;99.90;;;;;;4930758;28;20031;-87
2022/01/17 04:03:29;;;;;;;48.83;20.35;;;5.10;99.90;;;;;;4921460;28;20523;-87
2022/01/17 04:05:55;;;;;;;47.97;17.88;;;5.10;99.90;;;;;;4946051;28;20027;-87
2022/01/17 04:08:20;;;;;;;75.10;29.65;;;5.10;99.90;;;;;;4942435;28;20518;-87
2022/01/17 04:10:46;;;;;;;72.25;27.83;;;5.10;99.90;;;;;;4927477;28;20114;-87
2022/01/17 04:13:12;;;;;;;72.53;31.17;;;5.10;99.90;;;;;;4916619;28;20042;-87
2022/01/17 04:15:37;;;;;;;84.50;32.90;;;5.10;99.90;;;;;;4929040;28;20066;-87
2022/01/17 04:18:04;;;;;;;58.97;24.58;;;5.10;99.90;;;;;;4933436;28;20121;-87
2022/01/17 04:20:30;;;;;;;77.43;27.02;;;5.10;99.90;;;;;;4915278;28;20039;-87
2022/01/17 04:22:57;;;;;;;87.72;35.58;;;5.10;99.90;;;;;;4931169;28;20395;-87
2022/01/17 04:25:24;;;;;;;43.72;16.05;;;5.00;99.90;;;;;;4958053;28;20038;-87
2022/01/17 04:27:50;;;;;;;56.17;23.90;;;5.00;99.90;;;;;;4929434;28;20034;-87
2022/01/17 04:30:16;;;;;;;76.63;27.40;;;5.10;99.90;;;;;;4941043;28;20118;-87
2022/01/17 04:32:45;;;;;;;76.13;27.95;;;5.00;99.90;;;;;;4930930;28;20482;-87
2022/01/17 04:35:11;;;;;;;74.30;27.48;;;5.10;99.90;;;;;;4955168;28;20117;-87
2022/01/17 04:37:37;;;;;;;67.20;25.83;;;5.00;99.90;;;;;;4936039;28;20082;-87
2022/01/17 04:40:03;;;;;;;51.00;21.63;;;5.00;99.90;;;;;;4934014;28;20034;-87
2022/01/17 04:42:29;;;;;;;66.93;27.55;;;5.00;99.90;;;;;;4918801;28;20050;-87
2022/01/17 04:45:07;;;;;;;49.50;17.75;;;5.00;99.90;;;;;;4932615;28;20503;-87
2022/01/17 04:47:33;;;;;;;56.30;24.08;;;5.00;99.90;;;;;;4958464;28;20090;-87
2022/01/17 04:49:59;;;;;;;67.18;27.98;;;5.00;99.90;;;;;;4927596;28;20041;-87
2022/01/17 04:52:25;;;;;;;64.45;25.20;;;5.00;99.90;;;;;;4940379;28;20125;-87
2022/01/17 04:54:55;;;;;;;47.03;20.20;;;5.00;99.90;;;;;;4942574;28;20042;-87
2022/01/17 04:57:21;;;;;;;53.30;22.00;;;5.00;99.90;;;;;;4941318;28;20035;-86
2022/01/17 04:59:47;;;;;;;66.43;29.50;;;5.00;99.90;;;;;;4945354;28;20031;-87
2022/01/17 05:02:13;;;;;;;61.00;26.25;;;5.00;99.90;;;;;;4935025;28;20058;-87
2022/01/17 05:04:39;;;;;;;68.75;26.05;;;5.00;99.90;;;;;;4933178;28;20054;-87
2022/01/17 05:07:05;;;;;;;65.60;22.48;;;5.00;99.90;;;;;;4915348;28;20015;-87
2022/01/17 05:09:31;;;;;;;50.95;18.73;;;5.00;99.90;;;;;;4931160;28;20085;-87
2022/01/17 05:11:56;;;;;;;65.10;25.40;;;5.00;99.90;;;;;;4931173;28;20554;-87
2022/01/17 05:14:22;;;;;;;66.03;25.85;;;5.00;99.90;;;;;;4944031;28;20035;-86
2022/01/17 05:16:53;;;;;;;61.38;24.25;;;5.00;99.90;;;;;;4931947;28;20034;-87
2022/01/17 05:22:06;;;;;;;56.70;19.85;;;5.00;99.90;;;;;;4945663;28;20122;-86
2022/01/17 05:24:31;;;;;;;46.53;21.05;;;5.00;99.90;;;;;;4925504;28;20156;-87
2022/01/17 05:26:57;;;;;;;52.97;21.83;;;5.00;99.90;;;;;;4929861;28;20027;-87
2022/01/17 05:29:23;;;;;;;57.90;21.48;;;5.00;99.90;;;;;;4942654;28;20031;-87
2022/01/17 05:31:48;;;;;;;40.03;15.95;;;5.00;99.90;;;;;;4917205;28;20027;-87
2022/01/17 05:34:14;;;;;;;48.28;18.50;;;5.00;99.90;;;;;;4934188;28;20031;-87
2022/01/17 05:36:39;;;;;;;34.90;12.57;;;5.00;99.90;;;;;;4927199;28;20046;-87
2022/01/17 05:39:05;;;;;;;47.75;16.80;;;5.00;99.90;;;;;;4942435;28;20034;-86
2022/01/17 05:41:31;;;;;;;42.95;17.00;;;4.90;99.90;;;;;;4920435;28;20451;-87
2022/01/17 05:44:08;;;;;;;38.92;14.32;;;5.00;99.90;;;;;;4924311;28;20484;-87
2022/01/17 05:46:34;;;;;;;51.40;20.60;;;4.90;99.90;;;;;;4941427;28;20030;-87
2022/01/17 05:49:00;;;;;;;39.58;17.13;;;4.90;99.90;;;;;;4926984;28;20054;-87
2022/01/17 05:51:25;;;;;;;42.33;17.70;;;4.90;99.90;;;;;;4940290;28;20054;-87
2022/01/17 05:53:51;;;;;;;44.97;16.98;;;4.90;99.90;;;;;;4932186;28;20369;-86
2022/01/17 05:56:16;;;;;;;39.75;17.15;;;5.00;99.90;;;;;;4942054;28;20053;-86
2022/01/17 05:58:42;;;;;;;41.08;14.27;;;4.90;99.90;;;;;;4935507;28;20034;-86
2022/01/17 06:01:08;;;;;;;33.20;13.55;;;4.90;99.90;;;;;;4929522;28;20031;-85
2022/01/17 06:03:33;;;;;;;40.67;13.90;;;4.90;99.90;;;;;;4930986;28;20039;-88
2022/01/17 06:05:59;;;;;;;46.47;17.02;;;4.90;99.90;;;;;;4926843;28;20050;-86
2022/01/17 06:08:24;;;;;;;29.45;10.50;;;4.90;99.90;;;;;;4931003;28;20039;-86
2022/01/17 06:10:50;;;;;;;40.75;15.63;;;4.90;99.90;;;;;;4944084;28;20031;-86
2022/01/17 06:13:16;;;;;;;37.75;12.25;;;4.90;99.90;;;;;;4940045;28;20058;-86
2022/01/17 06:15:41;;;;;;;34.75;13.43;;;4.90;99.90;;;;;;4930987;28;20510;-86
2022/01/17 06:18:07;;;;;;;24.23;10.32;;;4.90;99.90;;;;;;4928062;28;20118;-87
2022/01/17 06:20:32;;;;;;;44.03;17.42;;;5.00;99.90;;;;;;4931178;28;20194;-87
2022/01/17 06:22:58;;;;;;;42.45;18.27;;;4.90;99.90;;;;;;4925978;28;20558;-87
2022/01/17 06:25:23;;;;;;;42.67;15.02;;;5.00;99.90;;;;;;4933559;28;20041;-86
2022/01/17 06:27:49;;;;;;;31.42;13.15;;;5.00;99.90;;;;;;4910655;28;20038;-86
2022/01/17 06:30:14;;;;;;;28.33;10.65;;;5.00;99.90;;;;;;4932069;28;20102;-86
2022/01/17 06:32:41;;;;;;;44.38;16.65;;;5.00;99.90;;;;;;4943401;28;20030;-86
2022/01/17 06:35:07;;;;;;;36.40;15.90;;;4.90;99.90;;;;;;4919612;28;20050;-87
2022/01/17 06:37:32;;;;;;;41.50;15.23;;;4.90;99.90;;;;;;4927191;28;20035;-86
2022/01/17 06:39:58;;;;;;;38.40;18.25;;;5.00;99.90;;;;;;4936745;28;20138;-86
2022/01/17 06:42:24;;;;;;;41.22;18.77;;;5.00;99.90;;;;;;4942918;28;20045;-86
2022/01/17 06:44:52;;;;;;;26.23;11.70;;;5.00;99.90;;;;;;4942223;28;20476;-87
2022/01/17 06:47:18;;;;;;;32.85;14.02;;;5.00;99.90;;;;;;4942654;28;20031;-86
2022/01/17 06:49:43;;;;;;;44.67;14.98;;;5.00;99.90;;;;;;4930623;28;20086;-86
2022/01/17 06:52:09;;;;;;;32.53;12.52;;;5.00;99.90;;;;;;4913740;29;20035;-86
2022/01/17 06:54:37;;;;;;;34.90;14.52;;;5.00;99.90;;;;;;4928201;28;20038;-87
2022/01/17 06:57:03;;;;;;;36.67;16.70;;;4.90;99.90;;;;;;4927388;28;20032;-86
2022/01/17 06:59:29;;;;;;;41.53;14.88;;;4.90;99.90;;;;;;4925344;28;20036;-86
2022/01/17 07:01:54;;;;;;;26.05;11.95;;;5.00;99.90;;;;;;4926690;28;20408;-86
2022/01/17 07:04:23;;;;;;;31.63;12.48;;;5.00;99.90;;;;;;4945197;28;20039;-86
2022/01/17 07:06:48;;;;;;;31.77;14.52;;;5.00;99.90;;;;;;4930196;28;20030;-86
2022/01/17 07:09:16;;;;;;;24.23;11.07;;;5.00;99.90;;;;;;4929704;28;20500;-86
2022/01/17 07:11:43;;;;;;;33.67;13.48;;;4.90;99.90;;;;;;4928835;28;20388;-86
2022/01/17 07:14:09;;;;;;;36.15;15.40;;;4.90;99.90;;;;;;4952840;28;20044;-86
2022/01/17 07:16:38;;;;;;;39.97;16.50;;;4.90;99.90;;;;;;4928025;28;20070;-87
2022/01/17 07:19:09;;;;;;;37.75;17.58;;;4.80;99.90;;;;;;4928222;28;20089;-86
2022/01/17 07:21:36;;;;;;;21.27;8.75;;;4.80;99.90;;;;;;4926459;28;20715;-87
2022/01/17 07:24:02;;;;;;;43.63;19.02;;;4.90;99.90;;;;;;4941426;28;20027;-87
2022/01/17 07:26:27;;;;;;;22.73;7.95;;;4.80;99.90;;;;;;4925589;28;20050;-86
2022/01/17 07:28:53;;;;;;;34.55;14.25;;;4.70;99.90;;;;;;4920626;28;20054;-86
2022/01/17 07:31:59;;;;;;;30.25;12.95;;;4.70;99.90;;;;;;4929557;28;20032;-87
2022/01/17 07:34:24;;;;;;;31.17;14.15;;;4.60;99.90;;;;;;4901828;28;20136;-86
2022/01/17 07:36:50;;;;;;;25.50;12.55;;;4.70;99.90;;;;;;4921115;28;20166;-86
2022/01/17 07:39:16;;;;;;;26.13;10.18;;;4.60;99.90;;;;;;4943222;28;20061;-86
2022/01/17 07:41:43;;;;;;;31.67;9.88;;;4.60;99.90;;;;;;4929217;28;20030;-86
2022/01/17 07:44:18;;;;;;;33.90;14.38;;;4.60;99.90;;;;;;4938746;28;20135;-86
2022/01/17 07:46:54;;;;;;;39.00;17.23;;;4.60;99.90;;;;;;4928595;28;20471;-86
2022/01/17 07:49:21;;;;;;;35.50;18.35;;;4.60;99.90;;;;;;4930927;28;20082;-86
2022/01/17 07:51:48;;;;;;;26.55;12.45;;;4.50;99.90;;;;;;4939664;28;20444;-86
2022/01/17 07:54:15;;;;;;;33.92;14.75;;;4.60;99.90;;;;;;4939701;28;20043;-86
2022/01/17 07:56:42;;;;;;;33.20;16.25;;;4.70;99.90;;;;;;4911983;28;20044;-86
2022/01/17 07:59:07;;;;;;;30.60;16.20;;;4.70;99.90;;;;;;4928378;28;20035;-86
2022/01/17 08:01:34;;;;;;;43.70;19.42;;;4.60;99.90;;;;;;4928869;28;20382;-86
2022/01/17 08:03:59;;;;;;;42.67;20.02;;;4.70;99.90;;;;;;4927916;28;20062;-86
2022/01/17 08:06:25;;;;;;;41.13;18.88;;;4.70;99.90;;;;;;4921451;28;20107;-86
2022/01/17 08:08:51;;;;;;;22.25;10.55;;;4.80;99.90;;;;;;4940248;28;20035;-86
2022/01/17 08:11:17;;;;;;;41.63;16.48;;;4.80;99.90;;;;;;4919066;28;20039;-87
2022/01/17 08:13:43;;;;;;;42.58;19.58;;;4.80;99.90;;;;;;4923743;28;20509;-87
2022/01/17 08:16:09;;;;;;;46.38;22.15;;;4.80;99.90;;;;;;4930329;28;20209;-87
2022/01/17 08:18:34;;;;;;;29.63;14.75;;;4.80;99.90;;;;;;4915659;28;20574;-87
2022/01/17 08:21:00;;;;;;;48.83;23.20;;;4.80;99.90;;;;;;4936830;28;20393;-86
2022/01/17 08:23:32;;;;;;;43.00;17.30;;;4.90;99.90;;;;;;4939517;28;20035;-89
2022/01/17 08:26:01;;;;;;;44.22;22.35;;;4.90;99.90;;;;;;4942726;28;20130;-90
2022/01/17 08:28:27;;;;;;;43.15;21.67;;;5.00;99.90;;;;;;4901964;28;20670;-89
2022/01/17 08:30:52;;;;;;;40.78;18.58;;;5.10;99.90;;;;;;4932664;28;20034;-89
2022/01/17 08:33:18;;;;;;;52.13;21.75;;;5.00;99.90;;;;;;4927925;28;20348;-90
2022/01/17 08:35:44;;;;;;;34.13;17.80;;;5.10;99.90;;;;;;4929708;28;20035;-89
2022/01/17 08:38:10;;;;;;;42.65;16.40;;;5.20;99.90;;;;;;4929661;28;20101;-89
2022/01/17 08:40:36;;;;;;;44.40;26.00;;;5.30;99.90;;;;;;4921195;28;20062;-89
2022/01/17 08:43:01;;;;;;;44.00;17.98;;;5.20;99.90;;;;;;4904958;28;20121;-89
2022/01/17 08:45:29;;;;;;;41.00;18.80;;;5.30;99.90;;;;;;4915908;28;20039;-87
2022/01/17 08:47:57;;;;;;;52.03;25.65;;;5.30;99.90;;;;;;4919098;28;20087;-89
2022/01/17 08:50:41;;;;;;;42.30;21.23;;;5.30;99.90;;;;;;4925889;28;20050;-89
2022/01/17 08:53:10;;;;;;;51.85;26.60;;;5.30;99.90;;;;;;4914171;28;20035;-88
2022/01/17 08:55:36;;;;;;;47.65;26.42;;;5.40;99.90;;;;;;4914799;28;20042;-88
2022/01/17 08:58:03;;;;;;;47.03;25.20;;;5.40;99.90;;;;;;4911115;28;20038;-89
2022/01/17 09:00:38;;;;;;;51.67;24.88;;;5.40;99.90;;;;;;4900458;28;20039;-89
2022/01/17 09:03:08;;;;;;;49.07;25.00;;;5.40;99.90;;;;;;4902839;28;20045;-89
2022/01/17 09:05:34;;;;;;;55.92;26.98;;;5.40;99.90;;;;;;4917788;28;20047;-89
2022/01/17 09:07:59;;;;;;;58.08;31.83;;;5.50;99.90;;;;;;4919704;28;20034;-90
2022/01/17 09:10:25;;;;;;;46.33;27.15;;;5.50;99.90;;;;;;4931590;28;20051;-89
2022/01/17 09:12:52;;;;;;;53.90;25.80;;;5.50;99.90;;;;;;4921875;28;20039;-89
2022/01/17 09:15:17;;;;;;;56.97;26.27;;;5.50;99.90;;;;;;4917810;28;20098;-89
2022/01/17 09:17:43;;;;;;;58.92;31.08;;;5.50;99.90;;;;;;4913902;28;20103;-89
2022/01/17 09:20:10;;;;;;;53.85;29.48;;;5.50;99.90;;;;;;4931288;28;20039;-89
2022/01/17 09:22:35;;;;;;;46.10;22.25;;;5.50;99.90;;;;;;4951511;28;20110;-89
2022/01/17 09:25:01;;;;;;;48.65;26.67;;;5.50;99.90;;;;;;4916202;28;20588;-89
2022/01/17 09:27:27;;;;;;;52.53;28.95;;;5.50;99.90;;;;;;4945058;28;20037;-88
2022/01/17 09:29:53;;;;;;;37.30;20.67;;;5.50;99.90;;;;;;4930407;28;20118;-89
2022/01/17 09:32:18;;;;;;;55.72;30.27;;;5.50;99.90;;;;;;4934993;28;20119;-89
2022/01/17 09:34:46;;;;;;;28.52;15.68;;;5.60;99.90;;;;;;4919701;28;20047;-89
2022/01/17 09:37:12;;;;;;;29.42;17.55;;;5.60;99.90;;;;;;4931901;28;20031;-89
2022/01/17 09:39:37;;;;;;;42.10;20.63;;;5.60;99.90;;;;;;4962455;28;20038;-89
2022/01/17 09:42:08;;;;;;;32.85;18.40;;;5.60;99.90;;;;;;4929520;28;20038;-88
2022/01/17 09:44:34;;;;;;;42.38;26.23;;;5.50;99.90;;;;;;4926509;28;20031;-89
2022/01/17 09:47:04;;;;;;;48.00;28.38;;;5.60;99.90;;;;;;4919728;28;20081;-88
2022/01/17 09:49:36;;;;;;;50.10;28.90;;;5.70;99.90;;;;;;4934899;28;20149;-88
2022/01/17 09:52:14;;;;;;;47.88;26.52;;;5.70;99.90;;;;;;4927100;28;20054;-88
2022/01/17 09:54:41;;;;;;;45.80;26.17;;;5.70;99.90;;;;;;4930854;28;20519;-89
2022/01/17 09:57:09;;;;;;;43.97;21.92;;;5.80;99.90;;;;;;4924670;28;20035;-88
2022/01/17 09:59:39;;;;;;;44.40;22.45;;;5.80;99.90;;;;;;4906040;28;20034;-88
2022/01/17 10:02:05;;;;;;;57.20;32.17;;;5.80;99.90;;;;;;4914364;28;20030;-88
2022/01/17 10:04:31;;;;;;;38.92;22.95;;;5.80;99.90;;;;;;4913918;28;20510;-88
2022/01/17 10:06:59;;;;;;;55.55;29.20;;;5.80;99.90;;;;;;4934378;28;20031;-89
2022/01/17 10:09:26;;;;;;;50.15;21.73;;;5.80;99.90;;;;;;4933416;28;20031;-88
2022/01/17 10:12:01;;;;;;;57.10;31.00;;;5.80;99.90;;;;;;4934609;28;20026;-88
2022/01/17 10:14:28;;;;;;;53.75;27.77;;;5.70;99.90;;;;;;4914565;28;20061;-88
2022/01/17 10:16:55;;;;;;;45.90;26.48;;;5.70;99.90;;;;;;4915427;28;20040;-89
2022/01/17 10:19:26;;;;;;;60.85;29.63;;;5.70;99.90;;;;;;4923454;28;20364;-88
2022/01/17 10:21:54;;;;;;;53.08;26.98;;;5.70;99.90;;;;;;4914973;28;20035;-88
2022/01/17 10:24:46;;;;;;;45.00;24.98;;;5.80;99.90;;;;;;4928108;28;20038;-90
2022/01/17 10:30:52;;;;;;;40.53;22.25;;;5.70;99.90;;;;;;4948842;28;20046;-90
2022/01/17 10:35:39;;;;;;;54.47;26.75;;;5.70;99.90;;;;;;4935122;28;20486;-91
2022/01/17 10:41:15;;;;;;;50.30;27.08;;;5.70;99.90;;;;;;4875092;28;20115;-90
2022/01/17 10:43:45;;;;;;;52.05;23.05;;;5.70;99.90;;;;;;4893058;28;20094;-90
2022/01/17 10:46:12;;;;;;;55.45;27.58;;;5.70;99.90;;;;;;4909760;29;20845;-90
2022/01/17 10:48:45;;;;;;;40.85;24.65;;;5.70;99.90;;;;;;4903387;28;20490;-91
2022/01/17 10:51:14;;;;;;;48.30;26.00;;;5.70;99.90;;;;;;4913709;29;20035;-90
2022/01/17 10:53:40;;;;;;;55.05;30.42;;;5.70;99.90;;;;;;4910076;28;20086;-91
2022/01/17 10:56:08;;;;;;;42.45;19.58;;;5.70;99.90;;;;;;4929399;28;20070;-90
2022/01/17 10:58:35;;;;;;;42.28;23.27;;;5.70;99.90;;;;;;4930443;28;20142;-89
2022/01/17 11:01:06;;;;;;;50.72;26.42;;;5.70;99.90;;;;;;4911649;29;20027;-89
2022/01/17 11:03:36;;;;;;;36.70;17.88;;;5.70;99.90;;;;;;4922073;28;20105;-90
2022/01/17 11:06:11;;;;;;;46.10;29.40;;;5.80;99.90;;;;;;4915295;29;20051;-90
2022/01/17 11:08:39;;;;;;;49.35;28.42;;;5.80;99.90;;;;;;4944333;28;20057;-89
2022/01/17 11:11:07;;;;;;;44.53;24.50;;;5.70;99.90;;;;;;4917802;28;20526;-89
2022/01/17 11:13:34;;;;;;;50.88;25.95;;;5.80;99.90;;;;;;4929793;28;20046;-90
2022/01/17 11:16:04;;;;;;;50.63;26.23;;;5.80;99.90;;;;;;4941782;28;20067;-89
2022/01/17 11:18:36;;;;;;;52.30;29.02;;;5.80;99.90;;;;;;4696461;28;10001036;-90
2022/01/17 11:21:11;;;;;;;54.28;29.65;;;5.80;99.90;;;;;;4942872;28;20236;-91
2022/01/17 11:23:39;;;;;;;41.75;23.85;;;5.80;99.90;;;;;;4929100;28;20471;-90
2022/01/17 11:26:05;;;;;;;50.78;26.63;;;5.80;99.90;;;;;;4946160;28;20031;-91
2022/01/17 11:28:32;;;;;;;58.55;29.90;;;5.80;99.90;;;;;;4911443;28;20039;-91
2022/01/17 11:30:59;;;;;;;59.80;33.00;;;5.90;99.90;;;;;;4922796;28;20125;-91
2022/01/17 11:33:25;;;;;;;67.18;33.50;;;5.90;99.90;;;;;;4942727;28;20034;-91
2022/01/17 11:35:53;;;;;;;54.88;32.08;;;5.90;99.90;;;;;;4929501;28;20053;-91
2022/01/17 11:38:25;;;;;;;50.42;23.65;;;5.80;99.90;;;;;;4928941;28;20035;-91
2022/01/17 11:40:52;;;;;;;55.58;27.40;;;5.80;99.90;;;;;;4928003;28;20030;-91
2022/01/17 11:43:33;;;;;;;51.55;28.08;;;5.90;99.90;;;;;;4917689;28;20098;-90
2022/01/17 11:46:02;;;;;;;57.00;29.88;;;5.90;99.90;;;;;;4904786;28;20405;-91
2022/01/17 11:48:30;;;;;;;47.88;26.40;;;5.90;99.90;;;;;;4917072;28;20806;-91
2022/01/17 11:51:11;;;;;;;58.78;31.45;;;5.90;99.90;;;;;;4929382;28;20038;-91
2022/01/17 11:53:38;;;;;;;63.65;29.73;;;5.90;99.90;;;;;;4943939;28;20039;-91
2022/01/17 11:56:04;;;;;;;65.00;30.38;;;5.90;99.90;;;;;;4916332;28;20125;-91
2022/01/17 11:58:44;;;;;;;34.45;16.83;;;5.90;99.90;;;;;;4923843;28;20506;-91
2022/01/17 12:01:22;;;;;;;60.00;28.48;;;5.90;99.90;;;;;;4920104;28;20182;-91
2022/01/17 12:03:52;;;;;;;45.40;21.23;;;5.90;99.90;;;;;;4917830;28;20484;-91
2022/01/17 12:06:26;;;;;;;51.88;27.80;;;5.90;99.90;;;;;;4925538;28;20046;-91
2022/01/17 12:09:24;;;;;;;58.08;28.85;;;5.90;99.90;;;;;;4944357;28;20499;-91
2022/01/17 12:12:07;;;;;;;56.00;26.42;;;6.00;99.90;;;;;;4925707;28;20039;-91
2022/01/17 12:14:34;;;;;;;40.90;21.77;;;5.90;99.90;;;;;;4959775;28;20063;-91
2022/01/17 12:17:19;;;;;;;69.80;31.10;;;6.00;99.90;;;;;;4928193;28;20064;-91
2022/01/17 12:20:03;;;;;;;53.53;28.10;;;6.00;99.90;;;;;;4942741;28;20027;-91
2022/01/17 12:22:52;;;;;;;53.25;25.38;;;6.00;99.90;;;;;;4953302;28;20058;-92
2022/01/17 12:25:29;;;;;;;38.22;18.67;;;6.00;99.90;;;;;;4920965;28;20775;-91
2022/01/17 12:28:03;;;;;;;51.25;28.35;;;6.10;99.90;;;;;;4952463;28;20053;-92
2022/01/17 12:30:45;;;;;;;69.05;29.63;;;6.00;99.90;;;;;;4962981;28;20035;-91
2022/01/17 12:33:27;;;;;;;64.05;31.67;;;6.00;99.90;;;;;;4948395;28;20030;-90
2022/01/17 12:36:00;;;;;;;51.50;25.92;;;6.00;99.90;;;;;;4935256;28;20039;-91
2022/01/17 12:38:52;;;;;;;52.58;23.38;;;6.10;99.90;;;;;;4952668;28;20094;-91
2022/01/17 12:41:33;;;;;;;56.78;31.30;;;6.00;99.90;;;;;;4919603;28;20042;-91
2022/01/17 12:44:06;;;;;;;59.72;28.35;;;6.00;99.90;;;;;;4892346;29;20825;-91
2022/01/17 12:46:32;;;;;;;44.65;21.55;;;6.10;99.90;;;;;;4922355;28;20613;-91
2022/01/17 12:48:58;;;;;;;48.05;27.00;;;6.20;99.90;;;;;;4932395;28;20035;-91
2022/01/17 12:51:25;;;;;;;59.33;32.28;;;6.10;99.90;;;;;;4934931;28;20051;-92
2022/01/17 12:53:50;;;;;;;55.33;28.25;;;6.10;99.90;;;;;;4933409;28;20030;-91
2022/01/17 12:56:17;;;;;;;58.88;31.73;;;6.10;99.90;;;;;;4919763;28;20762;-92
2022/01/17 12:58:43;;;;;;;55.03;31.73;;;6.10;99.90;;;;;;4928345;28;20070;-91
2022/01/17 13:01:10;;;;;;;64.70;32.97;;;6.10;99.90;;;;;;4916548;29;20067;-91